createdAt,value
2022-07-29T00:01:00.712Z,22.90
2022-07-29T00:03:30.582Z,22.90
2022-07-29T00:06:00.876Z,22.70
2022-07-29T00:08:31.117Z,23.10
2022-07-29T00:11:00.658Z,22.70
2022-07-29T00:13:32.479Z,23.30
2022-07-29T00:16:03.643Z,23.20
2022-07-29T00:18:35.531Z,22.90
2022-07-29T00:21:06.052Z,22.90
2022-07-29T00:23:36.961Z,23.20
2022-07-29T00:26:07.146Z,20.60
2022-07-29T00:28:37.544Z,22.20
2022-07-29T00:31:08.207Z,22.70
2022-07-29T00:33:38.353Z,22.10
2022-07-29T00:36:08.590Z,21.50
2022-07-29T00:38:39.119Z,20.70
2022-07-29T00:41:09.495Z,21.10
2022-07-29T00:43:39.640Z,20.10
2022-07-29T00:46:11.230Z,19.70
2022-07-29T00:48:41.728Z,19.80
2022-07-29T00:51:13.259Z,20.40
2022-07-29T00:53:43.706Z,21.10
2022-07-29T00:56:14.476Z,21.10
2022-07-29T00:58:46.910Z,21.90
2022-07-29T01:01:17.368Z,21.40
2022-07-29T01:06:21.541Z,22.30
2022-07-29T01:08:57.457Z,21.90
2022-07-29T01:11:59.316Z,22.00
2022-07-29T01:14:29.452Z,22.00
2022-07-29T01:17:23.680Z,22.00
2022-07-29T01:20:06.348Z,21.70
2022-07-29T01:23:04.901Z,22.10
2022-07-29T01:26:05.913Z,22.30
2022-07-29T01:28:50.118Z,22.10
2022-07-29T01:31:58.942Z,21.70
2022-07-29T01:34:39.020Z,21.80
2022-07-29T01:37:11.063Z,21.60
2022-07-29T01:39:41.133Z,21.90
2022-07-29T01:42:29.717Z,22.50
2022-07-29T01:45:09.851Z,21.70
2022-07-29T01:48:15.102Z,22.00
2022-07-29T01:51:24.365Z,22.20
2022-07-29T01:53:58.705Z,22.10
2022-07-29T01:56:31.860Z,22.50
2022-07-29T01:59:04.345Z,22.20
2022-07-29T02:01:35.399Z,22.60
2022-07-29T02:04:07.567Z,21.90
2022-07-29T02:06:38.373Z,22.20
2022-07-29T02:11:39.509Z,22.40
2022-07-29T02:14:09.807Z,22.20
2022-07-29T02:16:39.898Z,22.00
2022-07-29T02:19:11.045Z,22.70
2022-07-29T02:21:41.618Z,22.10
2022-07-29T02:24:12.660Z,21.90
2022-07-29T02:26:43.983Z,22.30
2022-07-29T02:29:14.978Z,22.30
2022-07-29T02:31:45.651Z,22.00
2022-07-29T02:34:16.298Z,22.30
2022-07-29T02:36:51.422Z,23.90
2022-07-29T02:39:22.330Z,22.70
2022-07-29T02:41:58.126Z,22.30
2022-07-29T02:44:34.115Z,22.30
2022-07-29T02:47:21.424Z,22.30
2022-07-29T02:50:00.887Z,22.30
2022-07-29T02:52:47.970Z,22.30
2022-07-29T02:55:21.034Z,22.10
2022-07-29T02:58:17.130Z,22.30
2022-07-29T03:00:47.249Z,22.70
2022-07-29T03:03:18.680Z,22.30
2022-07-29T03:05:48.766Z,22.20
2022-07-29T03:08:19.066Z,22.40
2022-07-29T03:10:49.341Z,22.60
2022-07-29T03:13:19.404Z,22.60
2022-07-29T03:18:19.775Z,22.40
2022-07-29T03:20:50.090Z,22.10
2022-07-29T03:23:25.011Z,22.60
2022-07-29T03:25:55.462Z,22.10
2022-07-29T03:28:29.389Z,22.40
2022-07-29T03:30:59.448Z,22.50
2022-07-29T03:33:31.127Z,22.20
2022-07-29T03:36:01.756Z,22.40
2022-07-29T03:38:33.500Z,22.20
2022-07-29T03:41:09.310Z,22.30
2022-07-29T03:43:49.511Z,22.40
2022-07-29T03:46:20.205Z,22.30
2022-07-29T03:48:53.146Z,22.30
2022-07-29T03:51:34.121Z,22.20
2022-07-29T03:54:14.067Z,22.40
2022-07-29T03:56:48.413Z,22.50
2022-07-29T03:59:18.844Z,22.40
2022-07-29T04:01:49.302Z,22.10
2022-07-29T04:04:19.961Z,22.40
2022-07-29T04:06:50.328Z,22.40
2022-07-29T04:12:01.840Z,22.60
2022-07-29T04:14:33.898Z,22.20
2022-07-29T04:17:04.655Z,22.40
2022-07-29T04:19:34.926Z,22.40
2022-07-29T04:22:05.613Z,22.80
2022-07-29T04:24:35.764Z,22.20
2022-07-29T04:27:05.952Z,22.70
2022-07-29T04:29:36.032Z,22.40
2022-07-29T04:32:07.180Z,22.40
2022-07-29T04:34:37.411Z,22.80
2022-07-29T04:37:07.481Z,22.40
2022-07-29T04:39:37.699Z,22.50
2022-07-29T04:42:08.046Z,22.00
2022-07-29T04:44:39.651Z,22.60
2022-07-29T04:47:14.557Z,22.30
2022-07-29T04:49:44.724Z,22.50
2022-07-29T04:52:17.781Z,22.50
2022-07-29T04:57:18.121Z,22.50
2022-07-29T04:59:48.247Z,22.50
2022-07-29T05:04:48.610Z,22.20
2022-07-29T05:07:19.066Z,22.70
2022-07-29T05:09:49.117Z,22.50
2022-07-29T05:12:19.235Z,22.40
2022-07-29T05:14:49.316Z,22.50
2022-07-29T05:17:19.369Z,22.80
2022-07-29T05:19:49.367Z,23.00
2022-07-29T05:22:22.285Z,22.20
2022-07-29T05:24:52.340Z,22.60
2022-07-29T05:27:22.666Z,23.00
2022-07-29T05:29:52.673Z,22.60
2022-07-29T05:32:22.775Z,22.60
2022-07-29T05:34:52.892Z,22.60
2022-07-29T05:37:23.237Z,22.70
2022-07-29T05:39:56.565Z,22.60
2022-07-29T05:42:28.090Z,22.60
2022-07-29T05:44:58.427Z,22.60
2022-07-29T05:47:28.960Z,23.00
2022-07-29T05:49:59.357Z,23.00
2022-07-29T05:52:29.982Z,22.60
2022-07-29T05:54:59.963Z,22.30
2022-07-29T05:57:30.375Z,22.60
2022-07-29T06:00:00.698Z,22.60
2022-07-29T06:02:31.202Z,22.60
2022-07-29T06:05:02.281Z,22.60
2022-07-29T06:07:32.894Z,22.70
2022-07-29T06:10:04.105Z,22.70
2022-07-29T06:12:34.267Z,22.70
2022-07-29T06:15:04.478Z,22.70
2022-07-29T06:17:35.044Z,22.70
2022-07-29T06:20:07.483Z,22.70
2022-07-29T06:22:37.784Z,22.60
2022-07-29T06:25:08.372Z,22.90
2022-07-29T06:27:38.783Z,22.90
2022-07-29T06:30:09.960Z,22.70
2022-07-29T06:32:43.052Z,22.80
2022-07-29T06:35:37.847Z,22.70
2022-07-29T06:38:03.863Z,22.70
2022-07-29T06:41:01.474Z,22.70
2022-07-29T06:43:33.689Z,23.20
2022-07-29T06:46:08.214Z,22.80
2022-07-29T06:48:38.849Z,22.80
2022-07-29T06:51:08.978Z,22.70
2022-07-29T06:53:39.124Z,22.80
2022-07-29T06:56:28.171Z,22.80
2022-07-29T06:58:58.513Z,22.80
2022-07-29T07:01:29.144Z,22.80
2022-07-29T07:03:59.640Z,22.90
2022-07-29T07:06:29.721Z,22.70
2022-07-29T07:09:00.485Z,22.80
2022-07-29T07:11:30.855Z,22.60
2022-07-29T07:14:03.703Z,22.90
2022-07-29T07:16:34.693Z,22.70
2022-07-29T07:19:05.176Z,22.90
2022-07-29T07:21:36.126Z,22.70
2022-07-29T07:24:06.533Z,22.90
2022-07-29T07:26:36.595Z,22.90
2022-07-29T07:29:06.976Z,23.00
2022-07-29T07:31:37.430Z,22.90
2022-07-29T07:34:07.585Z,22.90
2022-07-29T07:36:37.643Z,23.00
2022-07-29T07:39:10.594Z,23.00
2022-07-29T07:41:40.807Z,23.00
2022-07-29T07:46:47.180Z,23.20
2022-07-29T07:49:17.677Z,23.00
2022-07-29T07:51:50.614Z,23.10
2022-07-29T07:54:21.081Z,23.00
2022-07-29T07:56:53.104Z,22.70
2022-07-29T07:59:23.858Z,23.30
2022-07-29T08:01:55.616Z,23.00
2022-07-29T08:04:28.460Z,23.00
2022-07-29T08:07:00.100Z,23.10
2022-07-29T08:09:31.129Z,22.90
2022-07-29T08:12:01.473Z,23.00
2022-07-29T08:14:32.087Z,23.00
2022-07-29T08:17:02.441Z,23.10
2022-07-29T08:19:33.027Z,23.00
2022-07-29T08:24:45.382Z,23.10
2022-07-29T08:27:41.992Z,23.10
2022-07-29T08:30:07.339Z,23.30
2022-07-29T08:32:53.266Z,23.10
2022-07-29T08:35:25.129Z,23.50
2022-07-29T08:37:55.559Z,23.10
2022-07-29T08:40:31.894Z,23.10
2022-07-29T08:43:08.234Z,23.10
2022-07-29T08:45:52.091Z,23.20
2022-07-29T08:48:23.586Z,23.10
2022-07-29T08:50:57.868Z,23.00
2022-07-29T08:53:29.283Z,23.10
2022-07-29T08:55:59.324Z,23.10
2022-07-29T08:58:30.270Z,23.10
2022-07-29T09:01:00.448Z,23.20
2022-07-29T09:03:35.515Z,23.00
2022-07-29T09:06:06.253Z,23.00
2022-07-29T09:08:36.540Z,23.10
2022-07-29T09:11:09.366Z,23.10
2022-07-29T09:13:39.527Z,22.80
2022-07-29T09:16:10.671Z,23.00
2022-07-29T09:18:43.163Z,22.80
2022-07-29T09:21:33.569Z,23.10
2022-07-29T09:24:16.108Z,23.30
2022-07-29T09:26:52.537Z,23.10
2022-07-29T09:29:25.335Z,23.30
2022-07-29T09:31:59.203Z,23.10
2022-07-29T09:34:34.130Z,23.10
2022-07-29T09:37:04.399Z,23.10
2022-07-29T09:39:36.656Z,23.10
2022-07-29T09:42:08.384Z,22.80
2022-07-29T09:44:52.069Z,23.10
2022-07-29T09:47:23.888Z,23.10
2022-07-29T09:49:59.968Z,23.10
2022-07-29T09:52:31.033Z,23.30
2022-07-29T09:55:17.826Z,23.10
2022-07-29T09:57:48.880Z,23.20
2022-07-29T10:00:21.887Z,23.20
2022-07-29T10:02:52.844Z,23.30
2022-07-29T10:05:26.618Z,23.10
2022-07-29T10:08:07.021Z,22.80
2022-07-29T10:10:38.682Z,23.30
2022-07-29T10:13:15.397Z,23.20
2022-07-29T10:15:48.347Z,23.70
2022-07-29T10:18:21.705Z,22.90
2022-07-29T10:20:51.629Z,23.20
2022-07-29T10:23:22.721Z,23.20
2022-07-29T10:25:53.078Z,23.00
2022-07-29T10:28:23.242Z,23.20
2022-07-29T10:30:54.094Z,23.10
2022-07-29T10:33:52.328Z,23.00
2022-07-29T10:36:54.824Z,23.10
2022-07-29T10:40:02.445Z,23.80
2022-07-29T10:42:34.601Z,23.10
2022-07-29T10:45:05.557Z,23.10
2022-07-29T10:47:36.200Z,23.10
2022-07-29T10:50:07.365Z,23.10
2022-07-29T10:52:52.654Z,23.10
2022-07-29T10:55:38.850Z,23.50
2022-07-29T10:58:20.782Z,23.10
2022-07-29T11:00:56.361Z,23.00
2022-07-29T11:03:50.371Z,23.10
2022-07-29T11:06:27.204Z,23.10
2022-07-29T11:09:37.570Z,23.10
2022-07-29T11:12:45.856Z,23.10
2022-07-29T11:15:21.199Z,23.30
2022-07-29T11:18:00.624Z,23.10
2022-07-29T11:20:38.160Z,23.10
2022-07-29T11:23:45.695Z,23.10
2022-07-29T11:26:19.312Z,23.30
2022-07-29T11:29:04.138Z,23.00
2022-07-29T11:31:37.075Z,22.90
2022-07-29T11:34:28.218Z,23.00
2022-07-29T11:37:15.613Z,23.00
2022-07-29T11:40:01.980Z,23.00
2022-07-29T11:45:43.984Z,23.00
2022-07-29T11:48:28.887Z,23.00
2022-07-29T11:51:03.122Z,23.00
2022-07-29T11:53:33.529Z,23.20
2022-07-29T11:56:04.787Z,23.40
2022-07-29T11:58:35.761Z,23.00
2022-07-29T12:01:17.010Z,23.00
2022-07-29T12:03:48.365Z,23.50
2022-07-29T12:06:21.051Z,23.00
2022-07-29T12:07:03.823Z,23.00
2022-07-29T12:08:51.461Z,23.50
2022-07-29T12:11:23.549Z,23.10
2022-07-29T12:13:54.597Z,22.90
2022-07-29T12:16:29.487Z,23.00
2022-07-29T12:19:04.826Z,23.00
2022-07-29T12:21:59.523Z,23.00
2022-07-29T12:24:31.024Z,23.00
2022-07-29T12:27:02.638Z,23.20
2022-07-29T12:32:14.918Z,23.20
2022-07-29T12:34:49.927Z,22.90
2022-07-29T12:37:20.095Z,23.20
2022-07-29T12:40:02.042Z,22.90
2022-07-29T12:42:32.788Z,22.90
2022-07-29T12:45:03.667Z,22.90
2022-07-29T12:47:34.206Z,22.80
2022-07-29T12:50:16.715Z,23.10
2022-07-29T12:52:47.247Z,22.90
2022-07-29T12:55:17.909Z,22.90
2022-07-29T12:57:52.873Z,23.10
2022-07-29T13:00:26.593Z,23.10
2022-07-29T13:03:01.381Z,23.10
2022-07-29T13:05:49.447Z,22.90
2022-07-29T13:08:23.514Z,22.90
2022-07-29T13:10:54.164Z,22.60
2022-07-29T13:13:24.391Z,23.10
2022-07-29T13:16:11.748Z,22.90
2022-07-29T13:18:43.445Z,22.70
2022-07-29T13:21:18.746Z,22.90
